Time;durP1;ratioP1;P1;durP2;ratioP2;P2;SDS_P1;SDS_P2;PMS_P1;PMS_P2;Temp;Humidity;BMP_temperature;BMP_pressure;BME280_temperature;BME280_humidity;BME280_pressure;Samples;Min_cycle;Max_cycle;Signal;HPM_P1;HPM_P2
2020/12/19 00:02:07;;;;;;;24.17;14.27;;;;;;;3.16;89.79;101710.03;5032114;28;20049;-67
2020/12/19 00:04:34;;;;;;;22.70;13.45;;;;;;;3.44;89.48;101741.19;5032402;28;20029;-66
2020/12/19 00:06:59;;;;;;;27.25;15.02;;;;;;;3.25;89.93;101704.59;5032289;28;20033;-67
2020/12/19 00:09:25;;;;;;;26.83;14.13;;;;;;;3.46;90.39;101742.00;5032507;28;20400;-67
2020/12/19 00:11:51;;;;;;;27.75;16.55;;;;;;;3.35;90.73;101729.38;5032087;28;20030;-67
2020/12/19 00:14:18;;;;;;;25.23;15.00;;;;;;;3.25;89.38;101689.06;5032342;28;20037;-67
2020/12/19 00:16:44;;;;;;;23.38;14.68;;;;;;;3.54;88.67;101751.28;5032671;28;20121;-67
2020/12/19 00:19:09;;;;;;;23.20;14.18;;;;;;;3.46;88.71;101718.69;5032087;28;20104;-67
2020/12/19 00:21:36;;;;;;;26.35;14.80;;;;;;;3.63;89.26;101738.94;5032255;28;20029;-67
2020/12/19 00:24:03;;;;;;;23.92;15.23;;;;;;;3.62;89.11;101742.44;5031328;28;20404;-67
2020/12/19 00:26:37;;;;;;;27.15;15.70;;;;;;;3.75;88.49;101751.53;5040047;28;20511;-67
2020/12/19 00:29:04;;;;;;;21.17;13.80;;;;;;;3.60;88.21;101715.69;5051794;28;20021;-67
2020/12/19 00:31:30;;;;;;;24.27;13.23;;;;;;;3.71;87.77;101739.53;5052326;28;20025;-67
2020/12/19 00:33:55;;;;;;;22.30;13.38;;;;;;;3.80;87.73;101744.47;5052190;28;20499;-67
2020/12/19 00:36:21;;;;;;;22.85;13.45;;;;;;;3.92;87.34;101745.84;5051918;28;20029;-68
2020/12/19 00:38:47;;;;;;;23.00;13.35;;;;;;;3.94;86.95;101741.44;5050908;28;20029;-67
2020/12/19 00:41:23;;;;;;;22.40;12.85;;;;;;;3.93;86.58;101725.03;5051914;28;20037;-67
2020/12/19 00:43:49;;;;;;;22.08;13.25;;;;;;;4.15;86.13;101751.16;5053719;28;20025;-67
2020/12/19 00:46:18;;;;;;;19.65;11.88;;;;;;;3.91;86.19;101729.41;5055881;28;20481;-67
2020/12/19 00:48:45;;;;;;;24.00;13.43;;;;;;;3.97;86.77;101762.94;5056076;28;20029;-67
2020/12/19 00:51:15;;;;;;;18.55;12.95;;;;;;;4.10;86.13;101752.19;5055750;28;20040;-68
2020/12/19 00:53:42;;;;;;;25.13;14.45;;;;;;;3.68;86.92;101698.13;5055724;28;20028;-67
2020/12/19 00:56:22;;;;;;;23.33;14.32;;;;;;;3.65;87.21;101734.56;5055632;28;20044;-67
2020/12/19 00:58:49;;;;;;;25.10;14.85;;;;;;;3.73;86.89;101735.16;5054312;28;20027;-67
2020/12/19 01:01:16;;;;;;;23.45;14.70;;;;;;;3.58;87.08;101722.63;5055663;28;20118;-68
2020/12/19 01:03:42;;;;;;;21.17;13.20;;;;;;;3.54;87.19;101730.53;5055198;28;20482;-67
2020/12/19 01:06:08;;;;;;;24.20;13.98;;;;;;;3.58;86.49;101720.94;5055530;28;20034;-67
2020/12/19 01:08:33;;;;;;;25.50;14.57;;;;;;;3.71;86.67;101729.16;5055281;28;20387;-67
2020/12/19 01:10:59;;;;;;;23.27;14.95;;;;;;;3.49;86.90;101724.63;5056075;28;20108;-67
2020/12/19 01:13:24;;;;;;;29.55;13.68;;;;;;;3.64;87.68;101751.00;5055375;28;20023;-67
2020/12/19 01:15:50;;;;;;;25.02;14.07;;;;;;;3.75;86.88;101746.34;5055286;28;20095;-67
2020/12/19 01:18:17;;;;;;;22.17;14.13;;;;;;;3.51;86.80;101715.06;5055344;28;20029;-67
2020/12/19 01:20:42;;;;;;;25.05;13.32;;;;;;;3.71;86.52;101739.53;5055258;28;20033;-67
2020/12/19 01:23:07;;;;;;;23.27;14.38;;;;;;;3.76;86.36;101711.75;5055405;28;20028;-67
2020/12/19 01:25:33;;;;;;;23.75;13.98;;;;;;;4.00;86.44;101752.47;5053408;28;20025;-67
2020/12/19 01:27:59;;;;;;;24.52;13.85;;;;;;;3.97;86.10;101752.56;5055214;28;20031;-67
2020/12/19 01:30:24;;;;;;;19.65;12.25;;;;;;;3.97;85.96;101720.59;5053752;28;20435;-67
2020/12/19 01:32:50;;;;;;;21.77;12.85;;;;;;;4.24;85.23;101744.81;5054767;28;20017;-67
2020/12/19 01:35:16;;;;;;;23.20;13.27;;;;;;;4.28;85.55;101737.78;5054957;28;20025;-67
2020/12/19 01:37:42;;;;;;;20.95;13.18;;;;;;;4.11;85.89;101702.00;5054848;28;20119;-67
2020/12/19 01:40:08;;;;;;;24.15;13.60;;;;;;;4.17;86.22;101733.78;5054624;28;20131;-67
2020/12/19 01:42:33;;;;;;;22.70;13.35;;;;;;;4.07;86.21;101731.53;5054783;28;20022;-67
2020/12/19 01:44:58;;;;;;;22.20;12.98;;;;;;;4.09;87.17;101735.78;5054846;28;20032;-68
2020/12/19 01:47:25;;;;;;;26.38;13.68;;;;;;;4.05;86.11;101702.19;5054852;28;20059;-67
2020/12/19 01:49:51;;;;;;;20.17;12.45;;;;;;;4.30;85.89;101728.22;5054495;28;20120;-67
2020/12/19 01:52:19;;;;;;;23.52;13.63;;;;;;;4.18;85.94;101709.53;5053491;28;20112;-67
2020/12/19 01:54:47;;;;;;;22.23;13.63;;;;;;;4.16;87.05;101731.25;5054320;28;20025;-67
2020/12/19 01:57:14;;;;;;;21.80;12.93;;;;;;;3.86;87.31;101707.97;5054702;28;20036;-67
2020/12/19 01:59:39;;;;;;;20.77;11.23;;;;;;;3.99;88.20;101730.03;5054599;28;20033;-66
2020/12/19 02:02:06;;;;;;;18.23;9.85;;;;;;;4.09;91.55;101693.44;5054405;28;20125;-66
2020/12/19 02:04:33;;;;;;;21.33;12.77;;;;;;;4.59;89.16;101724.63;5054346;28;20511;-67
2020/12/19 02:07:01;;;;;;;21.13;12.93;;;;;;;4.61;86.66;101722.84;5054215;28;20115;-67
2020/12/19 02:09:38;;;;;;;19.55;13.18;;;;;;;4.40;85.75;101694.09;5054261;28;20499;-67
2020/12/19 02:12:04;;;;;;;23.85;14.23;;;;;;;4.59;84.91;101724.63;5054643;28;20484;-67
2020/12/19 02:14:31;;;;;;;21.20;13.63;;;;;;;4.47;86.34;101734.53;5054212;28;20036;-68
2020/12/19 02:17:08;;;;;;;22.70;13.32;;;;;;;4.14;87.25;101707.09;5054121;28;20458;-68
2020/12/19 02:19:34;;;;;;;23.45;14.10;;;;;;;4.26;86.73;101728.31;5054068;28;20025;-68
2020/12/19 02:22:00;;;;;;;23.35;14.00;;;;;;;4.20;86.17;101702.56;5054306;28;20052;-68
2020/12/19 02:24:26;;;;;;;28.17;14.90;;;;;;;4.01;86.02;101668.56;5054012;28;20044;-67
2020/12/19 02:26:53;;;;;;;28.27;15.38;;;;;;;4.25;85.90;101729.22;5053695;28;20057;-67
2020/12/19 02:29:20;;;;;;;22.65;14.23;;;;;;;4.10;85.80;101693.38;5053954;28;20103;-67
2020/12/19 02:31:46;;;;;;;25.52;15.02;;;;;;;4.19;86.07;101694.81;5054134;28;20385;-67
2020/12/19 02:34:12;;;;;;;29.23;16.42;;;;;;;4.18;85.84;101700.91;5053464;28;20033;-67
2020/12/19 02:36:38;;;;;;;24.40;15.88;;;;;;;4.10;86.13;101701.16;5053128;28;20519;-67
2020/12/19 02:39:04;;;;;;;28.70;16.35;;;;;;;4.28;86.54;101730.84;5053774;28;20029;-67
2020/12/19 02:41:33;;;;;;;25.55;15.18;;;;;;;4.17;86.92;101722.56;5053828;28;20029;-67
2020/12/19 02:43:58;;;;;;;27.10;15.85;;;;;;;4.22;87.38;101736.25;5053593;28;20116;-67
2020/12/19 02:46:24;;;;;;;31.17;17.00;;;;;;;4.14;87.43;101722.66;5053401;28;20135;-67
2020/12/19 02:48:50;;;;;;;30.88;17.15;;;;;;;3.89;88.40;101702.69;5053895;28;20108;-67
2020/12/19 02:51:16;;;;;;;27.40;15.98;;;;;;;4.05;87.50;101697.00;5053476;28;20071;-67
2020/12/19 02:53:42;;;;;;;28.27;17.05;;;;;;;4.39;86.80;101726.16;5053483;28;20025;-67
2020/12/19 02:56:07;;;;;;;31.63;17.60;;;;;;;4.46;86.49;101729.41;5053388;28;20484;-67
2020/12/19 02:58:33;;;;;;;25.77;15.85;;;;;;;4.53;86.70;101730.06;5053419;28;20029;-67
2020/12/19 03:00:59;;;;;;;29.92;17.55;;;;;;;4.59;85.94;101727.22;5053191;28;20499;-67
2020/12/19 03:03:25;;;;;;;25.67;16.65;;;;;;;4.53;86.23;101736.09;5053350;28;20103;-67
2020/12/19 03:05:50;;;;;;;28.73;16.52;;;;;;;4.40;86.60;101738.25;5052555;28;20159;-67
2020/12/19 03:08:16;;;;;;;30.75;17.67;;;;;;;4.41;86.99;101733.88;5053091;28;20036;-67
2020/12/19 03:10:42;;;;;;;27.17;16.50;;;;;;;4.30;87.71;101730.81;5053212;28;20025;-67
2020/12/19 03:13:07;;;;;;;29.10;15.93;;;;;;;4.33;87.92;101734.16;5053083;28;20036;-67
2020/12/19 03:15:33;;;;;;;26.70;16.30;;;;;;;4.43;87.05;101732.09;5053043;28;20384;-67
2020/12/19 03:17:58;;;;;;;28.90;17.20;;;;;;;4.48;86.81;101733.63;5052965;28;20033;-67
2020/12/19 03:20:24;;;;;;;25.67;14.98;;;;;;;4.40;87.36;101735.66;5053000;28;20107;-67
2020/12/19 03:22:49;;;;;;;28.33;16.10;;;;;;;4.33;87.19;101738.50;5052985;28;20040;-67
2020/12/19 03:25:15;;;;;;;29.60;16.20;;;;;;;4.39;87.22;101741.75;5052754;28;20025;-67
2020/12/19 03:27:40;;;;;;;23.77;14.85;;;;;;;4.52;85.82;101736.13;5052879;28;20045;-67
2020/12/19 03:30:06;;;;;;;24.48;14.10;;;;;;;4.36;85.56;101709.84;5052616;28;20468;-67
2020/12/19 03:32:31;;;;;;;27.15;14.55;;;;;;;4.26;85.40;101711.91;5052616;28;20039;-67
2020/12/19 03:34:57;;;;;;;25.00;13.70;;;;;;;4.30;85.55;101744.63;5052978;28;20412;-67
2020/12/19 03:37:22;;;;;;;23.05;15.50;;;;;;;4.24;85.91;101717.13;5052880;28;20048;-67
2020/12/19 03:39:47;;;;;;;24.48;14.20;;;;;;;4.28;85.42;101720.47;5052858;28;20057;-67
2020/12/19 03:42:13;;;;;;;26.48;15.52;;;;;;;4.36;85.77;101708.09;5052555;28;20024;-67
2020/12/19 03:44:38;;;;;;;27.45;14.93;;;;;;;4.50;84.66;101715.41;5052999;28;20033;-67
2020/12/19 03:47:04;;;;;;;27.80;14.52;;;;;;;4.72;84.42;101746.69;5052393;28;20467;-67
2020/12/19 03:49:29;;;;;;;25.25;15.63;;;;;;;4.50;84.68;101718.84;5052462;28;20029;-67
2020/12/19 03:51:55;;;;;;;22.95;13.70;;;;;;;4.52;85.81;101752.53;5052275;28;20447;-67
2020/12/19 03:54:20;;;;;;;23.52;13.77;;;;;;;4.32;86.82;101747.16;5052415;28;20053;-67
2020/12/19 03:56:46;;;;;;;28.73;16.58;;;;;;;3.97;87.17;101713.66;5052415;28;20035;-67
2020/12/19 03:59:12;;;;;;;25.90;15.60;;;;;;;4.02;88.17;101744.66;5052337;28;20120;-67
2020/12/19 04:01:37;;;;;;;25.40;15.90;;;;;;;3.98;88.04;101738.72;5052013;28;20029;-67
2020/12/19 04:04:03;;;;;;;34.80;19.95;;;;;;;3.88;88.67;101739.91;5052263;28;20488;-67
2020/12/19 04:06:29;;;;;;;28.10;17.60;;;;;;;3.92;89.03;101745.84;5052139;28;20405;-67
2020/12/19 04:08:54;;;;;;;30.35;17.20;;;;;;;3.66;89.55;101705.13;5052184;28;20113;-67
2020/12/19 04:11:19;;;;;;;25.63;15.52;;;;;;;3.86;89.54;101727.88;5052115;28;20032;-67
2020/12/19 04:13:45;;;;;;;29.50;15.82;;;;;;;3.96;89.71;101740.50;5052514;28;20033;-67
2020/12/19 04:16:10;;;;;;;25.67;16.40;;;;;;;3.79;89.21;101709.06;5052478;28;20029;-67
2020/12/19 04:18:36;;;;;;;22.95;14.07;;;;;;;3.95;89.45;101733.63;5053922;28;20025;-67
2020/12/19 04:21:01;;;;;;;25.75;14.73;;;;;;;3.87;89.05;101717.44;5056304;28;20163;-67
2020/12/19 04:23:27;;;;;;;26.52;16.67;;;;;;;3.77;90.43;101718.59;5056323;28;20518;-67
2020/12/19 04:25:52;;;;;;;30.60;17.88;;;;;;;3.83;89.95;101740.94;5038552;28;20060;-67
2020/12/19 04:28:18;;;;;;;29.77;16.17;;;;;;;4.08;88.87;101747.03;5056088;28;20396;-67
2020/12/19 04:30:43;;;;;;;30.10;16.88;;;;;;;3.90;88.35;101713.91;5050490;28;20405;-67
2020/12/19 04:33:08;;;;;;;42.33;24.90;;;;;;;3.70;89.08;101706.72;5036168;28;20497;-67
2020/12/19 04:35:34;;;;;;;53.60;32.92;;;;;;;4.11;88.43;101740.91;5040028;28;20490;-68
2020/12/19 04:37:59;;;;;;;37.28;22.00;;;;;;;3.88;88.62;101716.56;5055794;28;20028;-67
2020/12/19 04:40:25;;;;;;;25.73;17.38;;;;;;;3.81;89.21;101709.84;5055321;28;20037;-68
2020/12/19 04:42:50;;;;;;;42.17;30.88;;;;;;;3.89;88.08;101736.41;5050966;28;20064;-68
2020/12/19 04:45:16;;;;;;;39.05;28.27;;;;;;;3.84;88.09;101746.06;5034959;28;20546;-67
2020/12/19 04:47:42;;;;;;;37.15;23.45;;;;;;;3.79;88.43;101735.84;5035499;28;20044;-67
2020/12/19 04:50:07;;;;;;;46.03;30.95;;;;;;;3.64;88.98;101710.34;5035325;28;20095;-67
2020/12/19 04:52:33;;;;;;;30.55;19.15;;;;;;;3.82;88.18;101749.63;5034279;28;20508;-67
2020/12/19 04:54:58;;;;;;;29.58;19.20;;;;;;;3.65;89.66;101724.19;5034535;28;20400;-68
2020/12/19 04:57:24;;;;;;;29.55;17.05;;;;;;;4.01;89.24;101750.72;5034418;28;20033;-67
2020/12/19 04:59:49;;;;;;;32.67;18.15;;;;;;;3.93;88.75;101742.34;5034816;28;20037;-67
2020/12/19 05:02:15;;;;;;;34.17;19.35;;;;;;;3.82;89.06;101715.91;5035503;28;20033;-67
2020/12/19 05:04:42;;;;;;;36.75;21.20;;;;;;;3.88;89.09;101721.75;5033987;28;20040;-67
2020/12/19 05:07:11;;;;;;;37.08;22.63;;;;;;;4.08;89.00;101751.38;5034396;28;20033;-67
2020/12/19 05:09:38;;;;;;;38.85;22.63;;;;;;;3.92;88.74;101718.16;5051381;28;20065;-68
2020/12/19 05:12:04;;;;;;;36.40;21.63;;;;;;;4.22;88.92;101757.00;5052878;28;20048;-67
2020/12/19 05:14:31;;;;;;;37.67;23.27;;;;;;;4.32;88.29;101753.22;5053475;28;20099;-67
2020/12/19 05:16:58;;;;;;;43.28;26.52;;;;;;;4.25;88.05;101725.75;5053596;28;20119;-67
2020/12/19 05:19:28;;;;;;;37.85;23.70;;;;;;;4.28;87.02;101754.19;5053546;28;20024;-68
2020/12/19 05:21:57;;;;;;;39.33;22.42;;;;;;;4.11;87.80;101735.72;5053513;28;20053;-68
2020/12/19 05:24:31;;;;;;;37.00;22.05;;;;;;;4.21;87.11;101748.34;5053344;28;20020;-68
2020/12/19 05:26:58;;;;;;;46.33;27.80;;;;;;;4.36;86.80;101760.00;5054778;28;20518;-67
2020/12/19 05:29:25;;;;;;;53.05;31.90;;;;;;;4.50;86.71;101765.59;5054233;28;20025;-67
2020/12/19 05:31:55;;;;;;;55.20;35.20;;;;;;;4.39;87.35;101739.16;5054945;28;20041;-67
2020/12/19 05:34:21;;;;;;;;;;;;;;;4.66;86.61;101772.91;5055664;28;20025;-67
2020/12/19 05:36:50;;;;;;;30.48;20.23;;;;;;;4.47;85.58;101783.03;5055109;28;20363;-67
2020/12/19 05:39:15;;;;;;;38.78;22.60;;;;;;;4.43;85.68;101771.88;5053627;28;20142;-67
2020/12/19 05:41:41;;;;;;;30.23;20.40;;;;;;;4.54;86.08;101781.91;5054809;28;20392;-67
2020/12/19 05:44:07;;;;;;;31.73;20.33;;;;;;;4.59;85.77;101772.25;5054986;28;20526;-68
2020/12/19 05:46:37;;;;;;;29.65;20.08;;;;;;;4.40;86.41;101774.59;5054885;28;20468;-67
2020/12/19 05:49:05;;;;;;;31.77;19.88;;;;;;;4.24;86.28;101756.03;5054633;28;20036;-67
2020/12/19 05:51:33;;;;;;;37.30;21.08;;;;;;;4.33;87.21;101782.63;5054673;28;20508;-67
2020/12/19 05:54:06;;;;;;;31.52;23.75;;;;;;;4.49;86.89;101792.47;5054319;28;20029;-67
2020/12/19 05:56:50;;;;;;;39.25;26.15;;;;;;;4.58;86.81;101790.47;5054865;28;20029;-67
2020/12/19 05:59:17;;;;;;;26.20;18.30;;;;;;;4.69;86.67;101803.94;5054822;28;20060;-67
2020/12/19 06:01:44;;;;;;;31.52;20.90;;;;;;;4.77;85.41;101803.69;5054782;28;20040;-67
2020/12/19 06:04:11;;;;;;;31.35;20.27;;;;;;;4.46;85.61;101802.94;5054745;28;20094;-67
2020/12/19 06:06:39;;;;;;;29.85;18.80;;;;;;;4.29;86.85;101807.81;5054333;28;20067;-67
2020/12/19 06:09:07;;;;;;;28.27;18.25;;;;;;;4.03;87.54;101785.25;5054270;28;20086;-67
2020/12/19 06:11:58;;;;;;;30.95;19.55;;;;;;;4.23;87.46;101811.44;5054329;28;20033;-67
2020/12/19 06:14:25;;;;;;;31.55;20.88;;;;;;;4.47;86.60;101811.59;5053777;28;20408;-67
2020/12/19 06:16:56;;;;;;;34.28;19.63;;;;;;;4.34;86.39;101786.91;5054242;28;20028;-67
2020/12/19 06:19:24;;;;;;;50.58;35.20;;;;;;;4.66;86.55;101814.44;5054695;28;20029;-67
2020/12/19 06:21:52;;;;;;;26.23;18.02;;;;;;;4.54;85.05;101779.31;5054145;28;20442;-67
2020/12/19 06:24:43;;;;;;;31.85;20.05;;;;;;;4.50;86.13;101822.72;5054079;28;20052;-67
2020/12/19 06:27:32;;;;;;;29.35;19.95;;;;;;;4.65;86.16;101825.72;5054012;28;20492;-67
2020/12/19 06:29:58;;;;;;;30.63;19.58;;;;;;;4.70;85.04;101811.69;5053879;28;20115;-67
2020/12/19 06:32:25;;;;;;;30.13;18.85;;;;;;;4.91;85.00;101836.09;5053913;28;20124;-67
2020/12/19 06:35:08;;;;;;;35.55;21.42;;;;;;;4.79;85.52;101830.44;5053653;28;20029;-67
2020/12/19 06:37:36;;;;;;;35.75;22.27;;;;;;;4.64;85.63;101816.22;5053838;28;20391;-67
2020/12/19 06:40:20;;;;;;;86.35;43.20;;;;;;;4.64;85.46;101829.22;5053722;28;20431;-67
2020/12/19 06:43:07;;;;;;;72.70;39.30;;;;;;;4.37;86.09;101777.28;5053090;28;20400;-67
2020/12/19 06:45:32;;;;;;;31.77;19.13;;;;;;;4.70;85.47;101826.44;5053414;28;20135;-67
2020/12/19 06:47:58;;;;;;;29.35;19.83;;;;;;;4.52;85.89;101806.22;5053611;28;20033;-67
2020/12/19 06:50:25;;;;;;;33.78;20.00;;;;;;;4.70;85.68;101837.66;5053513;28;20105;-67
2020/12/19 06:52:55;;;;;;;32.65;19.38;;;;;;;4.44;85.96;101802.13;5053473;28;20032;-67
2020/12/19 06:55:22;;;;;;;27.02;18.85;;;;;;;4.67;85.95;101823.94;5053483;28;20033;-67
2020/12/19 06:57:58;;;;;;;31.40;19.27;;;;;;;4.64;84.83;101800.66;5053469;28;20037;-67
2020/12/19 07:00:33;;;;;;;34.75;21.05;;;;;;;4.91;84.74;101838.69;5053486;28;20112;-67
2020/12/19 07:03:00;;;;;;;33.50;21.33;;;;;;;5.04;84.40;101833.09;5053342;28;20052;-67
2020/12/19 07:05:28;;;;;;;32.13;19.40;;;;;;;4.94;84.09;101838.59;5053646;28;20079;-67
2020/12/19 07:08:14;;;;;;;34.63;20.02;;;;;;;4.96;84.30;101838.53;5053128;28;20086;-67
2020/12/19 07:10:39;;;;;;;33.85;22.00;;;;;;;4.94;84.13;101840.34;5053007;28;20102;-67
2020/12/19 07:13:05;;;;;;;37.75;21.83;;;;;;;4.98;83.87;101832.38;5052968;28;20442;-67
2020/12/19 07:15:51;;;;;;;36.70;20.88;;;;;;;4.95;84.01;101803.91;5053354;28;20025;-67
2020/12/19 07:18:33;;;;;;;35.40;21.05;;;;;;;5.30;83.35;101842.56;5053233;28;20033;-67
2020/12/19 07:21:10;;;;;;;38.03;23.88;;;;;;;5.26;82.87;101802.84;5053248;28;20112;-67
2020/12/19 07:23:39;;;;;;;42.50;24.48;;;;;;;5.41;82.43;101825.72;5052908;28;20061;-67
2020/12/19 07:26:06;;;;;;;43.20;30.15;;;;;;;5.32;83.89;101812.19;5052782;28;20028;-67
2020/12/19 07:28:32;;;;;;;70.30;45.22;;;;;;;5.44;83.75;101812.59;5052598;28;20060;-67
2020/12/19 07:30:58;;;;;;;79.80;54.13;;;;;;;5.47;84.12;101803.84;5052864;28;20027;-67
2020/12/19 07:33:23;;;;;;;71.43;51.80;;;;;;;5.73;83.59;101831.50;5052521;28;20534;-67
2020/12/19 07:35:49;;;;;;;76.13;52.42;;;;;;;5.69;83.89;101835.13;5052663;28;20025;-67
2020/12/19 07:38:15;;;;;;;64.53;43.55;;;;;;;5.64;83.85;101801.47;5052603;28;20025;-67
2020/12/19 07:40:41;;;;;;;73.82;45.13;;;;;;;5.87;82.94;101833.59;5052461;28;20528;-67
2020/12/19 07:43:09;;;;;;;58.72;39.88;;;;;;;5.78;82.95;101808.78;5052605;28;20090;-67
2020/12/19 07:45:35;;;;;;;61.13;43.50;;;;;;;6.00;81.93;101834.84;5052433;28;20025;-67
2020/12/19 07:48:01;;;;;;;63.97;46.33;;;;;;;6.06;81.66;101829.41;5052687;28;20091;-67
2020/12/19 07:50:28;;;;;;;65.13;44.50;;;;;;;6.14;81.59;101836.94;5052431;28;20029;-67
2020/12/19 07:53:02;;;;;;;64.30;44.58;;;;;;;6.00;82.09;101814.03;5050920;28;20454;-67
2020/12/19 07:55:28;;;;;;;57.58;40.30;;;;;;;6.01;82.18;101814.91;5052348;28;20025;-67
2020/12/19 07:57:55;;;;;;;60.50;40.60;;;;;;;5.91;82.66;101803.97;5052317;28;20033;-67
2020/12/19 08:00:24;;;;;;;64.15;41.90;;;;;;;5.98;82.91;101822.81;5052418;28;20025;-67
2020/12/19 08:02:50;;;;;;;62.30;41.75;;;;;;;6.00;82.65;101829.66;5052626;28;20029;-67
2020/12/19 08:05:16;;;;;;;75.80;41.33;;;;;;;5.85;82.34;101799.00;5051990;28;20021;-68
2020/12/19 08:07:42;;;;;;;60.13;37.75;;;;;;;6.18;81.09;101829.88;5052402;28;20036;-67
2020/12/19 08:10:09;;;;;;;28.45;18.50;;;;;;;6.28;80.21;101824.25;5052653;28;20040;-67
2020/12/19 08:12:35;;;;;;;24.48;16.25;;;;;;;6.36;79.32;101827.38;5047604;28;20033;-68
2020/12/19 08:15:05;;;;;;;32.45;20.55;;;;;;;6.30;79.73;101845.84;5015503;28;20167;-69
2020/12/19 08:17:36;;;;;;;30.83;18.33;;;;;;;6.16;79.60;101814.31;5023963;28;20040;-68
2020/12/19 08:20:03;;;;;;;35.60;22.85;;;;;;;6.09;79.07;101808.47;5014995;28;20073;-67
2020/12/19 08:22:31;;;;;;;32.30;18.63;;;;;;;5.91;78.97;101804.81;5018831;28;20033;-68
2020/12/19 08:24:56;;;;;;;29.27;18.23;;;;;;;5.98;79.84;101834.09;5037207;28;20048;-68
2020/12/19 08:27:27;;;;;;;36.60;21.92;;;;;;;6.02;79.80;101837.41;5015127;28;20065;-70
2020/12/19 08:30:09;;;;;;;28.90;17.48;;;;;;;5.91;79.76;101841.25;5024646;28;20061;-68
2020/12/19 08:32:36;;;;;;;27.73;17.60;;;;;;;5.93;79.77;101829.94;5020152;28;20425;-68
2020/12/19 08:35:02;;;;;;;25.92;16.95;;;;;;;6.04;80.18;101833.84;5021167;28;20026;-68
2020/12/19 08:37:28;;;;;;;25.20;16.27;;;;;;;5.83;79.67;101799.03;5021734;28;20041;-68
2020/12/19 08:40:07;;;;;;;26.27;14.55;;;;;;;6.17;79.02;101835.97;5023315;28;20116;-70
2020/12/19 08:42:36;;;;;;;25.08;14.50;;;;;;;6.24;78.80;101822.66;5025502;28;20037;-68
2020/12/19 08:45:23;;;;;;;25.60;16.80;;;;;;;6.17;78.41;101800.38;5017658;28;20116;-68
2020/12/19 08:47:54;;;;;;;28.55;16.73;;;;;;;6.22;78.21;101827.09;5019142;28;20038;-68
2020/12/19 08:50:22;;;;;;;21.60;13.02;;;;;;;6.17;77.86;101820.34;5021022;28;20599;-69
2020/12/19 08:52:48;;;;;;;25.17;14.80;;;;;;;6.07;77.66;101784.25;5020439;28;20116;-68
2020/12/19 08:55:13;;;;;;;25.92;16.45;;;;;;;6.19;78.33;101808.97;5022742;28;20603;-68
2020/12/19 08:57:42;;;;;;;26.30;15.38;;;;;;;6.00;78.43;101794.97;5020243;28;20510;-70
2020/12/19 09:00:11;;;;;;;20.90;13.38;;;;;;;6.14;78.42;101790.94;5018777;28;20124;-68
2020/12/19 09:02:38;;;;;;;23.13;14.05;;;;;;;6.06;78.08;101766.09;5019832;28;20032;-68
2020/12/19 09:05:04;;;;;;;22.33;12.90;;;;;;;6.32;77.97;101768.53;5023362;28;20030;-69
2020/12/19 09:07:30;;;;;;;22.85;13.55;;;;;;;6.51;77.35;101783.41;5019287;28;20493;-69
2020/12/19 09:09:55;;;;;;;24.13;14.13;;;;;;;6.60;76.81;101781.25;5013747;28;20037;-67
2020/12/19 09:12:22;;;;;;;20.63;13.68;;;;;;;6.51;76.60;101776.44;5020423;28;20496;-68
2020/12/19 09:14:48;;;;;;;23.02;14.07;;;;;;;6.51;76.83;101755.59;5019084;28;20059;-68
2020/12/19 09:17:27;;;;;;;31.83;22.23;;;;;;;6.72;76.11;101779.94;5016029;28;20392;-68
2020/12/19 09:20:05;;;;;;;27.02;16.00;;;;;;;6.59;76.68;101778.75;5016053;28;20033;-68
2020/12/19 09:22:33;;;;;;;27.15;17.63;;;;;;;6.70;77.32;101797.38;5017630;28;20438;-69
2020/12/19 09:24:58;;;;;;;26.25;17.20;;;;;;;6.78;77.55;101787.50;5026187;28;20048;-68
2020/12/19 09:27:24;;;;;;;28.25;18.10;;;;;;;6.69;76.49;101787.88;5021894;28;20066;-68
2020/12/19 09:29:49;;;;;;;42.55;25.48;;;;;;;6.68;77.04;101783.53;5026783;28;20017;-69
2020/12/19 09:32:15;;;;;;;29.10;18.85;;;;;;;6.43;76.66;101749.00;5019184;28;20489;-68
2020/12/19 09:34:40;;;;;;;34.15;20.85;;;;;;;6.41;77.41;101756.88;5021367;28;20021;-68
2020/12/19 09:37:06;;;;;;;31.38;19.48;;;;;;;6.32;77.79;101752.91;5017491;28;20543;-68
2020/12/19 09:39:31;;;;;;;30.38;19.52;;;;;;;6.12;77.62;101752.84;5025324;28;20030;-70
2020/12/19 09:41:57;;;;;;;25.77;16.83;;;;;;;6.13;77.98;101747.56;5023205;28;20469;-68
2020/12/19 09:44:22;;;;;;;29.63;18.92;;;;;;;6.37;77.95;101763.13;5028358;28;20025;-69
2020/12/19 09:46:48;;;;;;;26.90;15.38;;;;;;;6.38;76.49;101767.44;5023760;28;20029;-68
2020/12/19 09:49:14;;;;;;;29.00;17.52;;;;;;;6.28;76.97;101761.75;5023354;28;20045;-68
2020/12/19 09:51:39;;;;;;;31.35;17.90;;;;;;;6.24;77.24;101738.50;5023504;28;20025;-70
2020/12/19 09:54:05;;;;;;;33.05;19.85;;;;;;;6.48;77.48;101752.25;5023945;28;20025;-68
2020/12/19 09:56:40;;;;;;;23.10;14.55;;;;;;;6.53;76.10;101760.75;5026512;28;20037;-68
2020/12/19 09:59:06;;;;;;;21.83;14.13;;;;;;;6.52;76.22;101730.41;5024857;28;20056;-69
2020/12/19 10:01:31;;;;;;;24.52;14.00;;;;;;;6.50;75.26;101740.03;5025200;28;20477;-69
2020/12/19 10:03:56;;;;;;;26.83;16.92;;;;;;;6.28;75.37;101730.50;5027818;28;20041;-67
2020/12/19 10:06:22;;;;;;;20.80;13.30;;;;;;;6.54;75.98;101763.28;5026625;28;20112;-70
2020/12/19 10:08:48;;;;;;;32.45;19.35;;;;;;;6.62;75.65;101766.44;5022265;28;20136;-68
2020/12/19 10:11:13;;;;;;;24.23;16.00;;;;;;;6.58;76.07;101764.00;5024230;28;20026;-68
2020/12/19 10:13:39;;;;;;;24.85;16.40;;;;;;;6.48;75.47;101736.63;5027259;28;20033;-68
2020/12/19 10:16:05;;;;;;;27.73;18.67;;;;;;;6.30;75.91;101723.47;5027489;28;20111;-68
2020/12/19 10:18:30;;;;;;;25.42;17.13;;;;;;;6.32;76.14;101746.84;5023424;28;20626;-67
2020/12/19 10:20:55;;;;;;;24.55;16.58;;;;;;;6.38;76.05;101750.06;5019868;28;20087;-66
2020/12/19 10:23:21;;;;;;;27.42;16.52;;;;;;;6.37;76.29;101745.75;5021357;28;20083;-68
2020/12/19 10:25:46;;;;;;;22.60;14.85;;;;;;;6.30;76.86;101743.47;5026425;28;20041;-67
2020/12/19 10:28:12;;;;;;;25.33;17.25;;;;;;;6.43;76.74;101739.44;5021065;28;20052;-68
2020/12/19 10:30:37;;;;;;;20.73;14.30;;;;;;;6.32;75.71;101716.44;5022518;28;20037;-68
2020/12/19 10:33:03;;;;;;;23.50;16.00;;;;;;;6.13;75.68;101699.88;5020053;28;20064;-68
2020/12/19 10:35:28;;;;;;;26.80;14.80;;;;;;;6.32;76.61;101729.47;5013356;28;20080;-68
2020/12/19 10:37:53;;;;;;;28.70;17.98;;;;;;;6.24;76.55;101717.66;5026487;28;20028;-69
2020/12/19 10:40:20;;;;;;;26.50;16.52;;;;;;;6.34;76.58;101709.41;5011483;28;20032;-69
2020/12/19 10:42:46;;;;;;;22.08;13.68;;;;;;;6.25;76.31;101694.19;5010774;28;20029;-68
2020/12/19 10:45:11;;;;;;;25.67;16.70;;;;;;;6.46;76.89;101718.47;5017644;28;20405;-68
2020/12/19 10:47:36;;;;;;;30.17;20.23;;;;;;;6.31;76.61;101714.78;5023845;28;20037;-68
2020/12/19 10:50:02;;;;;;;24.55;17.20;;;;;;;6.37;76.46;101709.28;5016861;28;20080;-68
2020/12/19 10:52:28;;;;;;;25.25;16.88;;;;;;;6.42;76.04;101705.66;5016460;28;20034;-69
2020/12/19 10:54:54;;;;;;;23.63;14.30;;;;;;;6.19;75.61;101676.22;5010589;28;20032;-68
2020/12/19 10:57:20;;;;;;;23.10;13.63;;;;;;;6.59;75.11;101703.19;5015850;28;20563;-67
2020/12/19 10:59:45;;;;;;;21.67;13.93;;;;;;;6.51;75.30;101677.44;5022703;28;20038;-68
2020/12/19 11:02:11;;;;;;;20.98;13.82;;;;;;;6.50;75.07;101667.09;5016507;28;20398;-68
2020/12/19 11:04:36;;;;;;;19.77;13.18;;;;;;;6.66;73.88;101696.81;5013255;28;20907;-68
2020/12/19 11:07:02;;;;;;;26.42;15.82;;;;;;;6.67;74.64;101692.44;5023322;28;20033;-68
2020/12/19 11:09:27;;;;;;;21.70;13.75;;;;;;;6.70;74.34;101697.53;5026082;28;20409;-70
2020/12/19 11:11:54;;;;;;;22.20;13.68;;;;;;;6.60;74.52;101694.47;5024069;28;20034;-68
2020/12/19 11:14:21;;;;;;;23.70;13.75;;;;;;;6.36;74.39;101678.94;5025190;28;20025;-69
2020/12/19 11:16:46;;;;;;;22.65;15.77;;;;;;;6.22;75.02;101683.91;5028456;28;20034;-68
2020/12/19 11:19:12;;;;;;;29.13;18.80;;;;;;;6.43;75.76;101704.75;5022229;28;20078;-69